sensor_id;sensor_type;location;lat;lon;timestamp;pressure;altitude;pressure_sealevel;temperature;humidity
32251;BME280;41295;48.518;9.206;2023-03-04T00:00:30;97690.09;;;3.34;62.42
32251;BME280;41295;48.518;9.206;2023-03-04T00:02:33;97691.81;;;3.31;62.13
32251;BME280;41295;48.518;9.206;2023-03-04T00:04:35;97690.09;;;3.31;62.11
32251;BME280;41295;48.518;9.206;2023-03-04T00:06:38;97691.81;;;3.26;61.95
32251;BME280;41295;48.518;9.206;2023-03-04T00:08:42;97687.53;;;3.19;61.17
32251;BME280;41295;48.518;9.206;2023-03-04T00:10:45;97690.13;;;3.11;61.72
32251;BME280;41295;48.518;9.206;2023-03-04T00:12:47;97691.00;;;2.97;61.54
32251;BME280;41295;48.518;9.206;2023-03-04T00:14:50;97691.84;;;2.93;61.99
32251;BME280;41295;48.518;9.206;2023-03-04T00:16:52;97693.56;;;2.89;61.96
32251;BME280;41295;48.518;9.206;2023-03-04T00:18:56;97691.00;;;2.85;62.15
32251;BME280;41295;48.518;9.206;2023-03-04T00:20:58;97689.28;;;2.82;63.17
32251;BME280;41295;48.518;9.206;2023-03-04T00:23:01;97693.59;;;2.80;62.95
32251;BME280;41295;48.518;9.206;2023-03-04T00:25:06;97684.16;;;2.82;63.49
32251;BME280;41295;48.518;9.206;2023-03-04T00:27:09;97685.84;;;2.82;63.69
32251;BME280;41295;48.518;9.206;2023-03-04T00:29:11;97687.56;;;2.81;62.86
32251;BME280;41295;48.518;9.206;2023-03-04T00:31:14;97688.44;;;2.80;63.21
32251;BME280;41295;48.518;9.206;2023-03-04T00:33:16;97691.84;;;2.76;63.00
32251;BME280;41295;48.518;9.206;2023-03-04T00:35:19;97689.28;;;2.74;63.43
32251;BME280;41295;48.518;9.206;2023-03-04T00:37:22;97687.56;;;2.76;63.48
32251;BME280;41295;48.518;9.206;2023-03-04T00:39:24;97689.28;;;2.79;62.81
32251;BME280;41295;48.518;9.206;2023-03-04T00:41:28;97687.56;;;2.76;62.71
32251;BME280;41295;48.518;9.206;2023-03-04T00:43:31;97690.13;;;2.69;62.38
32251;BME280;41295;48.518;9.206;2023-03-04T00:45:33;97685.84;;;2.71;62.48
32251;BME280;41295;48.518;9.206;2023-03-04T00:47:36;97684.97;;;2.72;62.59
32251;BME280;41295;48.518;9.206;2023-03-04T00:49:39;97690.13;;;2.70;62.27
32251;BME280;41295;48.518;9.206;2023-03-04T00:51:41;97684.97;;;2.69;62.32
32251;BME280;41295;48.518;9.206;2023-03-04T00:53:44;97678.97;;;2.71;61.88
32251;BME280;41295;48.518;9.206;2023-03-04T00:55:47;97680.69;;;2.68;62.42
32251;BME280;41295;48.518;9.206;2023-03-04T00:57:51;97678.13;;;2.66;63.01
32251;BME280;41295;48.518;9.206;2023-03-04T00:59:54;97678.09;;;2.61;62.95
32251;BME280;41295;48.518;9.206;2023-03-04T01:01:56;97679.81;;;2.56;63.15
32251;BME280;41295;48.518;9.206;2023-03-04T01:03:59;97680.69;;;2.57;63.24
32251;BME280;41295;48.518;9.206;2023-03-04T01:06:02;97679.81;;;2.56;63.09
32251;BME280;41295;48.518;9.206;2023-03-04T01:08:05;97675.53;;;2.54;63.17
32251;BME280;41295;48.518;9.206;2023-03-04T01:10:09;97672.97;;;2.57;63.45
32251;BME280;41295;48.518;9.206;2023-03-04T01:12:12;97676.41;;;2.57;63.03
32251;BME280;41295;48.518;9.206;2023-03-04T01:14:16;97669.53;;;2.64;62.68
32251;BME280;41295;48.518;9.206;2023-03-04T01:16:18;97682.38;;;2.58;62.74
32251;BME280;41295;48.518;9.206;2023-03-04T01:18:21;97676.38;;;2.54;63.07
32251;BME280;41295;48.518;9.206;2023-03-04T01:20:24;97669.53;;;2.53;62.85
32251;BME280;41295;48.518;9.206;2023-03-04T01:22:26;97671.22;;;2.54;63.27
32251;BME280;41295;48.518;9.206;2023-03-04T01:24:29;97673.81;;;2.52;62.59
32251;BME280;41295;48.518;9.206;2023-03-04T01:26:32;97672.09;;;2.53;62.60
32251;BME280;41295;48.518;9.206;2023-03-04T01:28:34;97666.94;;;2.56;62.64
32251;BME280;41295;48.518;9.206;2023-03-04T01:30:38;97671.22;;;2.54;62.55
32251;BME280;41295;48.518;9.206;2023-03-04T01:32:41;97666.94;;;2.51;62.70
32251;BME280;41295;48.518;9.206;2023-03-04T01:34:44;97670.34;;;2.50;63.13
32251;BME280;41295;48.518;9.206;2023-03-04T01:36:46;97667.81;;;2.58;62.88
32251;BME280;41295;48.518;9.206;2023-03-04T01:38:49;97664.38;;;2.55;63.28
32251;BME280;41295;48.518;9.206;2023-03-04T01:40:51;97658.38;;;2.76;62.51
32251;BME280;41295;48.518;9.206;2023-03-04T01:42:54;97657.50;;;2.94;63.78
32251;BME280;41295;48.518;9.206;2023-03-04T01:44:56;97663.50;;;2.78;63.94
32251;BME280;41295;48.518;9.206;2023-03-04T01:47:00;97666.97;;;2.80;63.65
32251;BME280;41295;48.518;9.206;2023-03-04T01:49:02;97660.06;;;2.75;63.96
32251;BME280;41295;48.518;9.206;2023-03-04T01:51:11;97661.78;;;2.59;64.84
32251;BME280;41295;48.518;9.206;2023-03-04T01:53:19;97662.66;;;2.55;64.86
32251;BME280;41295;48.518;9.206;2023-03-04T01:55:22;97659.22;;;2.50;65.27
32251;BME280;41295;48.518;9.206;2023-03-04T01:57:25;97656.66;;;2.48;64.81
32251;BME280;41295;48.518;9.206;2023-03-04T01:59:30;97661.81;;;2.48;64.78
32251;BME280;41295;48.518;9.206;2023-03-04T02:01:32;97656.66;;;2.50;64.52
32251;BME280;41295;48.518;9.206;2023-03-04T02:03:37;97658.34;;;2.49;64.44
32251;BME280;41295;48.518;9.206;2023-03-04T02:05:42;97660.94;;;2.51;64.85
32251;BME280;41295;48.518;9.206;2023-03-04T02:07:45;97649.78;;;2.46;64.52
32251;BME280;41295;48.518;9.206;2023-03-04T02:09:48;97648.91;;;2.42;63.62
32251;BME280;41295;48.518;9.206;2023-03-04T02:11:51;97648.03;;;2.43;63.26
32251;BME280;41295;48.518;9.206;2023-03-04T02:13:53;97648.03;;;2.43;63.65
32251;BME280;41295;48.518;9.206;2023-03-04T02:15:56;97649.75;;;2.39;62.52
32251;BME280;41295;48.518;9.206;2023-03-04T02:17:59;97647.22;;;2.41;62.64
32251;BME280;41295;48.518;9.206;2023-03-04T02:20:10;97647.19;;;2.43;62.76
32251;BME280;41295;48.518;9.206;2023-03-04T02:22:16;97647.22;;;2.41;62.03
32251;BME280;41295;48.518;9.206;2023-03-04T02:24:24;97651.47;;;2.42;62.58
32251;BME280;41295;48.518;9.206;2023-03-04T02:26:30;97650.63;;;2.42;62.32
32251;BME280;41295;48.518;9.206;2023-03-04T02:28:33;97649.78;;;2.44;62.57
32251;BME280;41295;48.518;9.206;2023-03-04T02:30:35;97646.34;;;2.45;61.95
32251;BME280;41295;48.518;9.206;2023-03-04T02:32:38;97642.06;;;2.43;62.09
32251;BME280;41295;48.518;9.206;2023-03-04T02:34:44;97643.75;;;2.42;62.40
32251;BME280;41295;48.518;9.206;2023-03-04T02:36:50;97641.19;;;2.39;62.25
32251;BME280;41295;48.518;9.206;2023-03-04T02:38:54;97643.75;;;2.33;61.91
32251;BME280;41295;48.518;9.206;2023-03-04T02:40:57;97642.88;;;2.29;62.36
32251;BME280;41295;48.518;9.206;2023-03-04T02:43:01;97648.03;;;2.26;62.05
32251;BME280;41295;48.518;9.206;2023-03-04T02:45:05;97645.44;;;2.26;62.01
32251;BME280;41295;48.518;9.206;2023-03-04T02:47:09;97643.75;;;2.25;61.73
32251;BME280;41295;48.518;9.206;2023-03-04T02:49:12;97641.16;;;2.20;62.22
32251;BME280;41295;48.518;9.206;2023-03-04T02:51:15;97644.59;;;2.18;62.36
32251;BME280;41295;48.518;9.206;2023-03-04T02:53:19;97644.56;;;2.14;62.27
32251;BME280;41295;48.518;9.206;2023-03-04T02:55:22;97645.44;;;2.15;62.55
32251;BME280;41295;48.518;9.206;2023-03-04T02:57:24;97652.28;;;2.14;62.81
32251;BME280;41295;48.518;9.206;2023-03-04T02:59:29;97654.00;;;2.15;62.49
32251;BME280;41295;48.518;9.206;2023-03-04T03:01:31;97648.00;;;2.15;63.23
32251;BME280;41295;48.518;9.206;2023-03-04T03:03:34;97649.75;;;2.16;62.88
32251;BME280;41295;48.518;9.206;2023-03-04T03:05:40;97649.72;;;2.19;62.66
32251;BME280;41295;48.518;9.206;2023-03-04T03:07:42;97648.00;;;2.16;62.04
32251;BME280;41295;48.518;9.206;2023-03-04T03:09:48;97648.00;;;2.15;62.41
32251;BME280;41295;48.518;9.206;2023-03-04T03:11:50;97648.88;;;2.14;62.30
32251;BME280;41295;48.518;9.206;2023-03-04T03:13:53;97654.00;;;2.12;61.83
32251;BME280;41295;48.518;9.206;2023-03-04T03:15:57;97647.13;;;2.07;61.67
32251;BME280;41295;48.518;9.206;2023-03-04T03:17:59;97649.72;;;2.07;61.75
32251;BME280;41295;48.518;9.206;2023-03-04T03:20:02;97653.97;;;2.03;62.44
32251;BME280;41295;48.518;9.206;2023-03-04T03:22:05;97649.69;;;1.99;61.96
32251;BME280;41295;48.518;9.206;2023-03-04T03:24:08;97651.41;;;1.98;61.81
32251;BME280;41295;48.518;9.206;2023-03-04T03:26:11;97652.25;;;1.92;62.37
32251;BME280;41295;48.518;9.206;2023-03-04T03:28:13;97653.94;;;1.87;62.97
32251;BME280;41295;48.518;9.206;2023-03-04T03:30:16;97651.34;;;1.83;63.16
32251;BME280;41295;48.518;9.206;2023-03-04T03:32:20;97653.91;;;1.81;62.91
32251;BME280;41295;48.518;9.206;2023-03-04T03:34:22;97653.91;;;1.79;63.61
32251;BME280;41295;48.518;9.206;2023-03-04T03:36:25;97653.03;;;1.74;63.40
32251;BME280;41295;48.518;9.206;2023-03-04T03:38:29;97651.28;;;1.72;62.79
32251;BME280;41295;48.518;9.206;2023-03-04T03:40:31;97645.28;;;1.68;62.93
32251;BME280;41295;48.518;9.206;2023-03-04T03:42:34;97650.41;;;1.60;63.14
32251;BME280;41295;48.518;9.206;2023-03-04T03:44:37;97644.41;;;1.58;63.20
32251;BME280;41295;48.518;9.206;2023-03-04T03:46:39;97648.66;;;1.53;63.67
32251;BME280;41295;48.518;9.206;2023-03-04T03:48:43;97643.50;;;1.50;64.06
32251;BME280;41295;48.518;9.206;2023-03-04T03:50:46;97647.78;;;1.44;63.97
32251;BME280;41295;48.518;9.206;2023-03-04T03:52:48;97648.59;;;1.42;64.28
32251;BME280;41295;48.518;9.206;2023-03-04T03:54:53;97643.44;;;1.40;64.21
32251;BME280;41295;48.518;9.206;2023-03-04T03:56:56;97644.31;;;1.39;64.40
32251;BME280;41295;48.518;9.206;2023-03-04T03:58:58;97647.72;;;1.37;63.76
32251;BME280;41295;48.518;9.206;2023-03-04T04:01:01;97646.84;;;1.30;64.31
32251;BME280;41295;48.518;9.206;2023-03-04T04:03:04;97645.94;;;1.26;63.77
32251;BME280;41295;48.518;9.206;2023-03-04T04:05:09;97645.09;;;1.26;64.31
32251;BME280;41295;48.518;9.206;2023-03-04T04:07:11;97642.50;;;1.21;64.89
32251;BME280;41295;48.518;9.206;2023-03-04T04:09:14;97647.63;;;1.19;65.11
32251;BME280;41295;48.518;9.206;2023-03-04T04:11:17;97649.31;;;1.17;65.23
32251;BME280;41295;48.518;9.206;2023-03-04T04:13:20;97650.16;;;1.16;64.99
32251;BME280;41295;48.518;9.206;2023-03-04T04:15:22;97657.03;;;1.17;64.31
32251;BME280;41295;48.518;9.206;2023-03-04T04:17:25;97649.34;;;1.22;64.25
32251;BME280;41295;48.518;9.206;2023-03-04T04:19:27;97652.78;;;1.23;64.55
32251;BME280;41295;48.518;9.206;2023-03-04T04:21:31;97653.66;;;1.28;63.92
32251;BME280;41295;48.518;9.206;2023-03-04T04:23:34;97645.13;;;1.32;63.68
32251;BME280;41295;48.518;9.206;2023-03-04T04:25:37;97643.41;;;1.34;63.42
32251;BME280;41295;48.518;9.206;2023-03-04T04:27:39;97646.84;;;1.33;63.37
32251;BME280;41295;48.518;9.206;2023-03-04T04:29:42;97643.41;;;1.32;62.63
32251;BME280;41295;48.518;9.206;2023-03-04T04:31:44;97641.69;;;1.28;62.96
32251;BME280;41295;48.518;9.206;2023-03-04T04:33:47;97651.09;;;1.23;62.85
32251;BME280;41295;48.518;9.206;2023-03-04T04:35:49;97644.19;;;1.19;63.36
32251;BME280;41295;48.518;9.206;2023-03-04T04:37:53;97645.91;;;1.18;63.46
32251;BME280;41295;48.518;9.206;2023-03-04T04:39:56;97644.13;;;1.05;63.32
32251;BME280;41295;48.518;9.206;2023-03-04T04:41:58;97656.94;;;1.02;63.72
32251;BME280;41295;48.518;9.206;2023-03-04T04:44:01;97650.94;;;0.98;64.50
32251;BME280;41295;48.518;9.206;2023-03-04T04:46:04;97654.34;;;0.99;65.35
32251;BME280;41295;48.518;9.206;2023-03-04T04:48:06;97647.50;;;0.98;64.94
32251;BME280;41295;48.518;9.206;2023-03-04T04:50:10;97650.09;;;1.04;64.50
32251;BME280;41295;48.518;9.206;2023-03-04T04:52:13;97649.19;;;0.99;63.96
32251;BME280;41295;48.518;9.206;2023-03-04T04:54:17;97650.03;;;0.94;64.02
32251;BME280;41295;48.518;9.206;2023-03-04T04:56:21;97653.44;;;0.93;63.29
32251;BME280;41295;48.518;9.206;2023-03-04T04:58:25;97656.88;;;0.94;63.31
32251;BME280;41295;48.518;9.206;2023-03-04T05:00:27;97662.84;;;0.91;63.63
32251;BME280;41295;48.518;9.206;2023-03-04T05:02:30;97655.13;;;0.91;63.79
32251;BME280;41295;48.518;9.206;2023-03-04T05:04:36;97662.00;;;0.92;63.85
32251;BME280;41295;48.518;9.206;2023-03-04T05:06:39;97657.75;;;0.93;63.76
32251;BME280;41295;48.518;9.206;2023-03-04T05:08:41;97660.31;;;0.94;63.90
32251;BME280;41295;48.518;9.206;2023-03-04T05:10:46;97656.03;;;0.96;63.23
32251;BME280;41295;48.518;9.206;2023-03-04T05:12:49;97651.75;;;0.99;63.31
32251;BME280;41295;48.518;9.206;2023-03-04T05:14:51;97650.06;;;1.01;63.33
32251;BME280;41295;48.518;9.206;2023-03-04T05:16:54;97651.75;;;1.00;63.72
32251;BME280;41295;48.518;9.206;2023-03-04T05:18:56;97650.94;;;1.00;63.94
32251;BME280;41295;48.518;9.206;2023-03-04T05:21:00;97647.50;;;0.99;63.81
32251;BME280;41295;48.518;9.206;2023-03-04T05:23:03;97649.25;;;1.03;63.82
32251;BME280;41295;48.518;9.206;2023-03-04T05:25:07;97648.38;;;1.00;63.01
32251;BME280;41295;48.518;9.206;2023-03-04T05:27:11;97648.31;;;0.93;63.13
32251;BME280;41295;48.518;9.206;2023-03-04T05:29:13;97651.69;;;0.86;63.44
32251;BME280;41295;48.518;9.206;2023-03-04T05:31:16;97644.84;;;0.91;64.05
32251;BME280;41295;48.518;9.206;2023-03-04T05:33:19;97649.97;;;0.85;64.00
32251;BME280;41295;48.518;9.206;2023-03-04T05:35:22;97647.41;;;0.83;64.44
32251;BME280;41295;48.518;9.206;2023-03-04T05:37:25;97649.09;;;0.86;63.91
32251;BME280;41295;48.518;9.206;2023-03-04T05:39:28;97655.91;;;0.79;63.34
32251;BME280;41295;48.518;9.206;2023-03-04T05:41:30;97652.53;;;0.87;63.84
32251;BME280;41295;48.518;9.206;2023-03-04T05:43:35;97656.72;;;0.75;64.30
32251;BME280;41295;48.518;9.206;2023-03-04T05:45:39;97654.16;;;0.75;64.79
32251;BME280;41295;48.518;9.206;2023-03-04T05:47:41;97657.59;;;0.74;64.94
32251;BME280;41295;48.518;9.206;2023-03-04T05:49:44;97649.88;;;0.73;64.85
32251;BME280;41295;48.518;9.206;2023-03-04T05:51:46;97647.31;;;0.73;64.31
32251;BME280;41295;48.518;9.206;2023-03-04T05:53:49;97651.56;;;0.74;64.21
32251;BME280;41295;48.518;9.206;2023-03-04T05:55:52;97655.00;;;0.73;63.90
32251;BME280;41295;48.518;9.206;2023-03-04T05:57:55;97665.28;;;0.73;63.91
32251;BME280;41295;48.518;9.206;2023-03-04T05:59:59;97668.72;;;0.75;64.18
32251;BME280;41295;48.518;9.206;2023-03-04T06:02:01;97667.03;;;0.77;63.92
32251;BME280;41295;48.518;9.206;2023-03-04T06:04:04;97663.59;;;0.78;63.20
32251;BME280;41295;48.518;9.206;2023-03-04T06:06:07;97666.16;;;0.76;63.34
32251;BME280;41295;48.518;9.206;2023-03-04T06:08:10;97669.56;;;0.75;63.89
32251;BME280;41295;48.518;9.206;2023-03-04T06:10:14;97670.41;;;0.73;63.62
32251;BME280;41295;48.518;9.206;2023-03-04T06:12:17;97673.78;;;0.70;63.71
32251;BME280;41295;48.518;9.206;2023-03-04T06:14:20;97673.81;;;0.71;64.09
32251;BME280;41295;48.518;9.206;2023-03-04T06:16:24;97672.09;;;0.70;63.73
32251;BME280;41295;48.518;9.206;2023-03-04T06:18:27;97671.22;;;0.68;63.49
32251;BME280;41295;48.518;9.206;2023-03-04T06:20:30;97677.22;;;0.70;62.84
32251;BME280;41295;48.518;9.206;2023-03-04T06:22:33;97684.94;;;0.70;62.92
32251;BME280;41295;48.518;9.206;2023-03-04T06:24:36;97693.53;;;0.74;62.22
32251;BME280;41295;48.518;9.206;2023-03-04T06:26:38;97696.09;;;0.73;62.13
32251;BME280;41295;48.518;9.206;2023-03-04T06:28:42;97692.66;;;0.74;62.40
32251;BME280;41295;48.518;9.206;2023-03-04T06:30:45;97694.34;;;0.71;62.64
32251;BME280;41295;48.518;9.206;2023-03-04T06:32:49;97696.06;;;0.71;62.65
32251;BME280;41295;48.518;9.206;2023-03-04T06:34:51;97702.91;;;0.72;62.85
32251;BME280;41295;48.518;9.206;2023-03-04T06:36:54;97705.44;;;0.67;62.04
32251;BME280;41295;48.518;9.206;2023-03-04T06:38:56;97706.28;;;0.66;62.66
32251;BME280;41295;48.518;9.206;2023-03-04T06:41:05;97704.59;;;0.67;62.76
32251;BME280;41295;48.518;9.206;2023-03-04T06:43:08;97701.19;;;0.69;62.34
32251;BME280;41295;48.518;9.206;2023-03-04T06:45:11;97703.78;;;0.71;62.37
32251;BME280;41295;48.518;9.206;2023-03-04T06:47:13;97702.03;;;0.71;62.33
32251;BME280;41295;48.518;9.206;2023-03-04T06:49:18;97708.94;;;0.74;62.71
32251;BME280;41295;48.518;9.206;2023-03-04T06:51:20;97708.09;;;0.77;63.22
32251;BME280;41295;48.518;9.206;2023-03-04T06:53:23;97715.81;;;0.78;63.06
32251;BME280;41295;48.518;9.206;2023-03-04T06:55:26;97724.41;;;0.82;63.37
32251;BME280;41295;48.518;9.206;2023-03-04T06:57:28;97721.00;;;0.84;64.55
32251;BME280;41295;48.518;9.206;2023-03-04T06:59:31;97731.34;;;0.91;63.78
32251;BME280;41295;48.518;9.206;2023-03-04T07:01:33;97731.34;;;0.95;63.99
32251;BME280;41295;48.518;9.206;2023-03-04T07:03:37;97735.63;;;0.96;63.76
32251;BME280;41295;48.518;9.206;2023-03-04T07:05:41;97727.13;;;1.02;63.45
32251;BME280;41295;48.518;9.206;2023-03-04T07:07:43;97737.41;;;1.01;63.79
32251;BME280;41295;48.518;9.206;2023-03-04T07:09:46;97737.41;;;1.02;63.94
32251;BME280;41295;48.518;9.206;2023-03-04T07:11:49;97742.59;;;1.07;64.43
32251;BME280;41295;48.518;9.206;2023-03-04T07:13:51;97741.72;;;1.05;64.39
32251;BME280;41295;48.518;9.206;2023-03-04T07:15:54;97738.28;;;1.07;64.85
32251;BME280;41295;48.518;9.206;2023-03-04T07:17:57;97736.63;;;1.11;64.67
32251;BME280;41295;48.518;9.206;2023-03-04T07:19:59;97738.38;;;1.15;64.66
32251;BME280;41295;48.518;9.206;2023-03-04T07:22:03;97738.38;;;1.15;64.57
32251;BME280;41295;48.518;9.206;2023-03-04T07:24:06;97740.13;;;1.19;65.19
32251;BME280;41295;48.518;9.206;2023-03-04T07:26:08;97741.84;;;1.22;65.99
32251;BME280;41295;48.518;9.206;2023-03-04T07:28:11;97747.00;;;1.25;66.00
32251;BME280;41295;48.518;9.206;2023-03-04T07:30:14;97749.59;;;1.28;65.93
32251;BME280;41295;48.518;9.206;2023-03-04T07:32:16;97739.34;;;1.30;66.44
32251;BME280;41295;48.518;9.206;2023-03-04T07:34:19;97748.75;;;1.31;66.53
32251;BME280;41295;48.518;9.206;2023-03-04T07:36:25;97747.06;;;1.35;66.35
32251;BME280;41295;48.518;9.206;2023-03-04T07:38:29;97744.50;;;1.35;66.92
32251;BME280;41295;48.518;9.206;2023-03-04T07:40:32;97749.66;;;1.38;66.50
32251;BME280;41295;48.518;9.206;2023-03-04T07:42:34;97749.66;;;1.38;66.15
32251;BME280;41295;48.518;9.206;2023-03-04T07:44:37;97742.81;;;1.41;66.26
32251;BME280;41295;48.518;9.206;2023-03-04T07:46:40;97740.25;;;1.43;67.27
32251;BME280;41295;48.518;9.206;2023-03-04T07:48:42;97747.16;;;1.46;66.97
32251;BME280;41295;48.518;9.206;2023-03-04T07:50:45;97744.63;;;1.55;66.40
32251;BME280;41295;48.518;9.206;2023-03-04T07:52:47;97752.31;;;1.50;66.45
32251;BME280;41295;48.518;9.206;2023-03-04T07:54:52;97743.75;;;1.53;66.94
32251;BME280;41295;48.518;9.206;2023-03-04T07:56:55;97752.34;;;1.56;66.59
32251;BME280;41295;48.518;9.206;2023-03-04T07:58:58;97751.50;;;1.58;66.31
32251;BME280;41295;48.518;9.206;2023-03-04T08:01:00;97748.97;;;1.61;66.41
32251;BME280;41295;48.518;9.206;2023-03-04T08:03:03;97751.53;;;1.62;66.79
32251;BME280;41295;48.518;9.206;2023-03-04T08:05:06;97749.84;;;1.67;67.05
32251;BME280;41295;48.518;9.206;2023-03-04T08:07:09;97751.56;;;1.72;66.74
32251;BME280;41295;48.518;9.206;2023-03-04T08:09:11;97755.88;;;1.76;67.22
32251;BME280;41295;48.518;9.206;2023-03-04T08:11:18;97761.91;;;1.78;67.12
32251;BME280;41295;48.518;9.206;2023-03-04T08:13:20;97761.09;;;1.84;67.23
32251;BME280;41295;48.518;9.206;2023-03-04T08:15:26;97763.66;;;1.85;67.33
32251;BME280;41295;48.518;9.206;2023-03-04T08:17:33;97761.09;;;1.85;66.73
32251;BME280;41295;48.518;9.206;2023-03-04T08:19:36;97770.53;;;1.88;67.06
32251;BME280;41295;48.518;9.206;2023-03-04T08:21:38;97776.53;;;1.90;67.95
32251;BME280;41295;48.518;9.206;2023-03-04T08:23:41;97772.25;;;1.86;67.27
32251;BME280;41295;48.518;9.206;2023-03-04T08:25:44;97779.09;;;1.90;67.20
32251;BME280;41295;48.518;9.206;2023-03-04T08:27:48;97773.97;;;1.91;67.18
32251;BME280;41295;48.518;9.206;2023-03-04T08:29:50;97769.69;;;1.95;67.82
32251;BME280;41295;48.518;9.206;2023-03-04T08:31:54;97772.28;;;1.97;67.21
32251;BME280;41295;48.518;9.206;2023-03-04T08:33:57;97774.91;;;2.06;67.74
32251;BME280;41295;48.518;9.206;2023-03-04T08:35:59;97779.22;;;2.07;67.48
32251;BME280;41295;48.518;9.206;2023-03-04T08:38:02;97780.94;;;2.11;67.78
32251;BME280;41295;48.518;9.206;2023-03-04T08:40:05;97783.50;;;2.14;68.08
32251;BME280;41295;48.518;9.206;2023-03-04T08:42:08;97789.53;;;2.16;67.55
32251;BME280;41295;48.518;9.206;2023-03-04T08:44:13;97790.41;;;2.19;67.84
32251;BME280;41295;48.518;9.206;2023-03-04T08:46:15;97792.13;;;2.20;67.68
32251;BME280;41295;48.518;9.206;2023-03-04T08:48:19;97796.41;;;2.21;67.86
32251;BME280;41295;48.518;9.206;2023-03-04T08:50:21;97799.00;;;2.24;68.34
32251;BME280;41295;48.518;9.206;2023-03-04T08:52:24;97796.41;;;2.21;67.73
32251;BME280;41295;48.518;9.206;2023-03-04T08:54:27;97799.00;;;2.24;67.67
32251;BME280;41295;48.518;9.206;2023-03-04T08:56:29;97800.72;;;2.26;68.06
32251;BME280;41295;48.518;9.206;2023-03-04T08:58:32;97797.28;;;2.27;68.04
32251;BME280;41295;48.518;9.206;2023-03-04T09:00:39;97801.59;;;2.30;67.97
32251;BME280;41295;48.518;9.206;2023-03-04T09:02:43;97801.63;;;2.33;67.88
32251;BME280;41295;48.518;9.206;2023-03-04T09:04:45;97804.19;;;2.33;67.88
32251;BME280;41295;48.518;9.206;2023-03-04T09:06:48;97803.34;;;2.36;68.01
32251;BME280;41295;48.518;9.206;2023-03-04T09:08:53;97804.19;;;2.39;67.77
32251;BME280;41295;48.518;9.206;2023-03-04T09:10:56;97807.63;;;2.35;67.72
32251;BME280;41295;48.518;9.206;2023-03-04T09:12:59;97806.75;;;2.36;67.89
32251;BME280;41295;48.518;9.206;2023-03-04T09:15:02;97807.63;;;2.38;67.07
32251;BME280;41295;48.518;9.206;2023-03-04T09:17:13;97805.09;;;2.51;67.47
32251;BME280;41295;48.518;9.206;2023-03-04T09:19:16;97807.63;;;2.43;66.48
32251;BME280;41295;48.518;9.206;2023-03-04T09:21:18;97807.63;;;2.38;67.60
32251;BME280;41295;48.518;9.206;2023-03-04T09:23:21;97809.34;;;2.38;67.86
32251;BME280;41295;48.518;9.206;2023-03-04T09:25:24;97807.63;;;2.38;67.83
32251;BME280;41295;48.518;9.206;2023-03-04T09:27:27;97804.22;;;2.41;67.83
32251;BME280;41295;48.518;9.206;2023-03-04T09:29:29;97804.19;;;2.38;67.55
32251;BME280;41295;48.518;9.206;2023-03-04T09:31:32;97804.19;;;2.33;67.99
32251;BME280;41295;48.518;9.206;2023-03-04T09:33:36;97808.47;;;2.33;67.94
32251;BME280;41295;48.518;9.206;2023-03-04T09:35:39;97814.47;;;2.32;67.93
32251;BME280;41295;48.518;9.206;2023-03-04T09:37:42;97814.47;;;2.32;67.75
32251;BME280;41295;48.518;9.206;2023-03-04T09:39:44;97809.28;;;2.27;68.21
32251;BME280;41295;48.518;9.206;2023-03-04T09:41:49;97811.03;;;2.25;68.29
32251;BME280;41295;48.518;9.206;2023-03-04T09:43:56;97814.44;;;2.22;68.03
32251;BME280;41295;48.518;9.206;2023-03-04T09:46:02;97819.56;;;2.24;68.59
32251;BME280;41295;48.518;9.206;2023-03-04T09:48:06;97824.78;;;2.28;68.25
32251;BME280;41295;48.518;9.206;2023-03-04T09:50:12;97817.00;;;2.27;68.46
32251;BME280;41295;48.518;9.206;2023-03-04T09:52:25;97818.75;;;2.28;67.68
32251;BME280;41295;48.518;9.206;2023-03-04T09:54:50;97822.16;;;2.27;67.47
32251;BME280;41295;48.518;9.206;2023-03-04T09:57:09;97820.44;;;2.21;67.96
32251;BME280;41295;48.518;9.206;2023-03-04T09:59:23;97818.72;;;2.22;67.31
32251;BME280;41295;48.518;9.206;2023-03-04T10:01:30;97815.31;;;2.24;67.86
32251;BME280;41295;48.518;9.206;2023-03-04T10:03:41;97824.72;;;2.27;67.53
32251;BME280;41295;48.518;9.206;2023-03-04T10:05:52;97820.44;;;2.26;67.95
32251;BME280;41295;48.518;9.206;2023-03-04T10:07:58;97817.88;;;2.27;67.36
32251;BME280;41295;48.518;9.206;2023-03-04T10:10:04;97811.91;;;2.33;67.17
32251;BME280;41295;48.518;9.206;2023-03-04T10:12:12;97806.75;;;2.32;67.89
32251;BME280;41295;48.518;9.206;2023-03-04T10:14:33;97806.84;;;2.63;66.30
32251;BME280;41295;48.518;9.206;2023-03-04T10:16:40;97806.81;;;2.47;66.52
32251;BME280;41295;48.518;9.206;2023-03-04T10:18:47;97803.41;;;2.56;66.43
32251;BME280;41295;48.518;9.206;2023-03-04T10:20:57;97798.22;;;2.45;66.99
32251;BME280;41295;48.518;9.206;2023-03-04T10:23:08;97801.66;;;2.43;67.63
32251;BME280;41295;48.518;9.206;2023-03-04T10:25:17;97800.78;;;2.40;67.58
32251;BME280;41295;48.518;9.206;2023-03-04T10:27:20;97805.06;;;2.43;67.69
32251;BME280;41295;48.518;9.206;2023-03-04T10:29:24;97807.63;;;2.43;67.07
32251;BME280;41295;48.518;9.206;2023-03-04T10:31:32;97797.34;;;2.42;67.59
32251;BME280;41295;48.518;9.206;2023-03-04T10:33:38;97801.63;;;2.39;67.49
32251;BME280;41295;48.518;9.206;2023-03-04T10:35:43;97810.22;;;2.42;67.86
32251;BME280;41295;48.518;9.206;2023-03-04T10:37:49;97803.38;;;2.44;67.51
32251;BME280;41295;48.518;9.206;2023-03-04T10:39:52;97808.56;;;2.48;67.35
32251;BME280;41295;48.518;9.206;2023-03-04T10:41:58;97808.50;;;2.47;66.85
32251;BME280;41295;48.518;9.206;2023-03-04T10:44:02;97806.81;;;2.46;67.31
32251;BME280;41295;48.518;9.206;2023-03-04T10:46:05;97801.66;;;2.52;67.45
32251;BME280;41295;48.518;9.206;2023-03-04T10:48:23;97798.25;;;2.56;67.05
32251;BME280;41295;48.518;9.206;2023-03-04T10:50:27;97792.28;;;2.62;66.88
32251;BME280;41295;48.518;9.206;2023-03-04T10:52:33;97790.59;;;2.83;66.57
32251;BME280;41295;48.518;9.206;2023-03-04T10:54:43;97788.84;;;2.72;66.77
32251;BME280;41295;48.518;9.206;2023-03-04T10:56:54;97788.88;;;2.79;65.83
32251;BME280;41295;48.518;9.206;2023-03-04T11:01:41;97798.28;;;2.66;66.48
32251;BME280;41295;48.518;9.206;2023-03-04T11:03:47;97796.59;;;2.66;66.27
32251;BME280;41295;48.518;9.206;2023-03-04T11:05:51;97790.56;;;2.69;66.53